Weather at Redmond Taylor Army Heliport

Public forecast

Using degrees Fahrenheit for public forecast. Weather courtesy of forecast.io.

Closest aviation weather report (METAR) to Redmond Taylor Army Heliport

Closest report is Grand Prairie Municipal Airport, 4.3 nm (8.0 km) WSW.

2024/05/30 18:50 (retrieved 30 minutes ago)

KGPM 301850Z 02009KT 1SM BKN036 22/22 A2998

Closest aviation forecast (TAF) to Redmond Taylor Army Heliport

Closest forecast is Arlington Municipal Airport, 7.5 nm (13.8 km) SW.

2024/05/30 18:30 (retrieved 50 minutes ago)

TAF KGKY 301727Z 3018/3118 03013KT P6SM VCTS BKN025CB TEMPO 3018/3021 2SM TSRA BR OVC015CB FM302100 11012KT P6SM VCSH BKN060 OVC110 FM310500 15008KT P6SM VCTS OVC015CB TEMPO 3106/3110 27025G35KT 2SM +TSRA BKN010CB FM311000 13008KT 6SM -SHRA BR OVC025 FM311600 21007KT P6SM OVC035